createdAt,value
2022-10-13T00:01:18.901Z,101255.03
2022-10-13T00:03:49.057Z,101256.03
2022-10-13T00:06:18.713Z,101236.31
2022-10-13T00:08:45.734Z,101264.88
2022-10-13T00:11:14.048Z,101264.97
2022-10-13T00:13:41.440Z,101264.63
2022-10-13T00:16:08.563Z,101261.75
2022-10-13T00:18:35.197Z,101258.84
2022-10-13T00:21:07.183Z,101262.63
2022-10-13T00:23:34.643Z,101252.91
2022-10-13T00:26:07.491Z,101260.03
2022-10-13T00:28:34.145Z,101255.94
2022-10-13T00:31:00.662Z,101220.44
2022-10-13T00:33:27.207Z,101250.22
2022-10-13T00:35:54.055Z,101214.94
2022-10-13T00:38:22.261Z,101247.34
2022-10-13T00:40:56.087Z,101251.25
2022-10-13T00:43:31.177Z,101241.53
2022-10-13T00:45:57.747Z,101184.72
2022-10-13T00:48:26.808Z,101239.25
2022-10-13T00:50:53.646Z,101203.63
2022-10-13T00:53:22.973Z,101239.03
2022-10-13T00:55:51.770Z,101212.72
2022-10-13T00:58:19.662Z,101235.97
2022-10-13T01:00:49.111Z,101178.34
2022-10-13T01:03:16.129Z,101158.25
2022-10-13T01:05:42.905Z,101205.66
2022-10-13T01:08:10.333Z,101213.84
2022-10-13T01:11:10.542Z,101227.84
2022-10-13T01:14:03.174Z,101226.41
2022-10-13T01:16:35.384Z,101214.03
2022-10-13T01:19:29.900Z,101214.88
2022-10-13T01:22:27.613Z,101214.38
2022-10-13T01:25:14.383Z,101214.09
2022-10-13T01:27:50.317Z,101216.88
2022-10-13T01:30:19.419Z,101209.06
2022-10-13T01:32:59.888Z,101202.88
2022-10-13T01:35:54.230Z,101205.06
2022-10-13T01:38:32.899Z,101112.06
2022-10-13T01:41:10.965Z,101183.28
2022-10-13T01:43:42.836Z,101194.34
2022-10-13T01:46:14.131Z,101191.38
2022-10-13T01:48:42.585Z,101186.47
2022-10-13T01:51:13.971Z,101119.69
2022-10-13T01:53:41.192Z,101168.34
2022-10-13T01:56:07.741Z,101179.75
2022-10-13T01:58:35.629Z,101131.38
2022-10-13T02:01:20.474Z,101163.72
2022-10-13T02:03:55.956Z,101171.84
2022-10-13T02:06:29.614Z,101167.41
2022-10-13T02:09:10.890Z,101127.28
2022-10-13T02:11:39.429Z,101137.56
2022-10-13T02:14:14.315Z,101168.72
2022-10-13T02:16:43.092Z,101134.69
2022-10-13T02:19:17.187Z,101130.72
2022-10-13T02:21:44.290Z,101124.25
2022-10-13T02:24:11.041Z,101131.09
2022-10-13T02:26:38.285Z,101153.47
2022-10-13T02:29:12.418Z,101153.19
2022-10-13T02:31:39.774Z,101152.84
2022-10-13T02:34:06.426Z,101091.72
2022-10-13T02:36:33.504Z,101089.78
2022-10-13T02:39:00.351Z,101159.38
2022-10-13T02:41:26.805Z,101096.53
2022-10-13T02:43:53.573Z,101094.94
2022-10-13T02:46:20.045Z,101142.97
2022-10-13T02:48:46.541Z,101159.97
2022-10-13T02:51:12.998Z,101102.03
2022-10-13T02:53:40.171Z,101124.09
2022-10-13T02:56:07.638Z,101099.22
2022-10-13T02:58:34.941Z,101144.44
2022-10-13T03:01:13.511Z,101167.22
2022-10-13T03:03:40.621Z,101154.53
2022-10-13T03:06:07.829Z,101145.84
2022-10-13T03:08:35.388Z,101175.47
2022-10-13T03:11:02.227Z,101143.38
2022-10-13T03:13:28.714Z,101168.59
2022-10-13T03:15:55.266Z,101161.03
2022-10-13T03:18:21.750Z,101150.69
2022-10-13T03:21:07.024Z,101162.94
2022-10-13T03:23:34.023Z,101143.25
2022-10-13T03:26:00.718Z,101158.22
2022-10-13T03:28:27.422Z,101095.94
2022-10-13T03:31:01.930Z,101114.81
2022-10-13T03:33:28.402Z,101104.31
2022-10-13T03:35:54.902Z,101145.28
2022-10-13T03:38:21.363Z,101124.59
2022-10-13T03:40:47.765Z,101110.91
2022-10-13T03:43:14.227Z,101134.25
2022-10-13T03:45:40.681Z,101126.25
2022-10-13T03:48:07.503Z,101139.66
2022-10-13T03:50:33.977Z,101138.91
2022-10-13T03:53:00.452Z,101114.91
2022-10-13T03:55:27.074Z,101118.81
2022-10-13T03:57:53.591Z,101141.88
2022-10-13T04:00:20.228Z,101141.81
2022-10-13T04:02:49.210Z,101110.34
2022-10-13T04:05:15.737Z,101130.69
2022-10-13T04:07:42.512Z,101092.78
2022-10-13T04:10:11.562Z,101114.38
2022-10-13T04:12:38.244Z,101140.47
2022-10-13T04:15:05.398Z,101089.91
2022-10-13T04:17:31.830Z,101125.84
2022-10-13T04:19:58.312Z,101099.38
2022-10-13T04:22:24.841Z,101107.31
2022-10-13T04:24:51.477Z,101118.34
2022-10-13T04:27:19.869Z,101108.97
2022-10-13T04:29:46.374Z,101112.69
2022-10-13T04:32:12.887Z,101103.97
2022-10-13T04:34:39.351Z,101112.94
2022-10-13T04:37:05.827Z,101109.88
2022-10-13T04:39:32.321Z,101060.91
2022-10-13T04:41:59.126Z,101063.03
2022-10-13T04:44:25.721Z,101034.88
2022-10-13T04:46:52.269Z,101062.66
2022-10-13T04:49:18.725Z,101086.75
2022-10-13T04:51:45.244Z,100976.38
2022-10-13T04:54:11.769Z,101046.59
2022-10-13T04:56:38.641Z,101093.28
2022-10-13T04:59:05.861Z,101054.84
2022-10-13T05:01:33.126Z,101049.19
2022-10-13T05:04:01.746Z,101033.31
2022-10-13T05:06:58.914Z,101071.22
2022-10-13T05:09:25.871Z,101085.09
2022-10-13T05:11:54.358Z,101063.34
2022-10-13T05:14:22.006Z,101074.59
2022-10-13T05:16:49.045Z,101033.75
2022-10-13T05:19:15.573Z,101076.56
2022-10-13T05:21:42.377Z,101070.84
2022-10-13T05:24:13.811Z,101061.16
2022-10-13T05:26:40.691Z,101075.56
2022-10-13T05:29:07.135Z,101072.53
2022-10-13T05:31:36.155Z,101005.78
2022-10-13T05:34:03.093Z,101086.63
2022-10-13T05:36:32.623Z,101064.06
2022-10-13T05:39:01.556Z,101040.13
2022-10-13T05:41:28.787Z,101010.25
2022-10-13T05:43:59.406Z,101086.69
2022-10-13T05:46:25.991Z,101026.47
2022-10-13T05:48:52.763Z,101079.16
2022-10-13T05:51:33.752Z,101065.94
2022-10-13T05:54:24.389Z,101073.97
2022-10-13T05:57:04.401Z,101080.31
2022-10-13T05:59:35.477Z,101075.28
2022-10-13T06:02:02.379Z,100972.91
2022-10-13T06:04:34.601Z,101031.03
2022-10-13T06:07:01.098Z,101056.28
2022-10-13T06:09:34.568Z,101002.66
2022-10-13T06:12:01.506Z,101026.53
2022-10-13T06:14:28.046Z,101053.81
2022-10-13T06:16:54.499Z,101030.06
2022-10-13T06:19:21.015Z,101065.47
2022-10-13T06:21:47.536Z,101049.47
2022-10-13T06:24:14.131Z,101057.69
2022-10-13T06:26:40.858Z,101052.97
2022-10-13T06:29:07.691Z,101010.59
2022-10-13T06:31:34.262Z,100956.50
2022-10-13T06:34:00.790Z,101041.19
2022-10-13T06:36:27.681Z,101045.91
2022-10-13T06:38:54.206Z,100993.75
2022-10-13T06:41:20.928Z,101051.84
2022-10-13T06:43:47.565Z,101040.31
2022-10-13T06:46:14.155Z,101044.13
2022-10-13T06:48:40.787Z,100945.09
2022-10-13T06:51:09.438Z,101020.59
2022-10-13T06:53:36.013Z,101042.97
2022-10-13T06:56:05.054Z,101027.47
2022-10-13T06:58:31.744Z,101049.06
2022-10-13T07:00:58.316Z,100984.09
2022-10-13T07:03:25.323Z,101043.13
2022-10-13T07:05:51.979Z,101035.22
2022-10-13T07:08:19.044Z,100904.13
2022-10-13T07:10:45.642Z,101042.13
2022-10-13T07:13:12.223Z,101024.69
2022-10-13T07:15:39.978Z,101013.94
2022-10-13T07:18:06.992Z,101003.75
2022-10-13T07:20:33.769Z,101012.78
2022-10-13T07:23:00.352Z,101023.78
2022-10-13T07:25:26.851Z,101015.63
2022-10-13T07:27:53.384Z,101034.56
2022-10-13T07:30:20.012Z,101006.84
2022-10-13T07:32:47.629Z,101027.78
2022-10-13T07:35:14.155Z,101031.88
2022-10-13T07:37:40.739Z,101037.19
2022-10-13T07:40:08.122Z,101042.88
2022-10-13T07:42:34.699Z,101014.50
2022-10-13T07:45:02.219Z,101033.38
2022-10-13T07:47:29.269Z,101033.50
2022-10-13T07:49:55.881Z,101042.13
2022-10-13T07:52:23.287Z,101025.13
2022-10-13T07:54:50.749Z,101027.06
2022-10-13T07:57:17.653Z,101033.25
2022-10-13T07:59:44.198Z,100960.03
2022-10-13T08:02:10.678Z,101029.31
2022-10-13T08:04:37.262Z,101038.50
2022-10-13T08:07:05.636Z,101028.53
2022-10-13T08:09:32.350Z,100994.09
2022-10-13T08:12:00.887Z,101003.66
2022-10-13T08:14:29.051Z,101029.22
2022-10-13T08:16:56.184Z,100989.38
2022-10-13T08:19:22.956Z,101001.97
2022-10-13T08:21:59.259Z,101036.78
2022-10-13T08:24:27.161Z,100963.00
2022-10-13T08:26:53.857Z,101002.16
2022-10-13T08:29:23.808Z,100986.06
2022-10-13T08:31:55.338Z,101022.66
2022-10-13T08:34:23.342Z,100991.31
2022-10-13T08:36:53.388Z,101049.16
2022-10-13T08:39:21.218Z,101040.63
2022-10-13T08:41:47.909Z,101040.63
2022-10-13T08:47:28.409Z,101021.06
2022-10-13T08:50:01.458Z,100910.31
2022-10-13T08:52:44.287Z,101048.94
2022-10-13T08:55:18.148Z,101024.50
2022-10-13T08:57:44.624Z,100977.25
2022-10-13T09:00:13.306Z,101018.69
2022-10-13T09:02:40.183Z,101041.84
2022-10-13T09:05:14.215Z,101022.97
2022-10-13T09:07:41.134Z,101007.31
2022-10-13T09:10:09.775Z,101043.59
2022-10-13T09:12:36.342Z,100961.97
2022-10-13T09:15:09.900Z,101038.09
2022-10-13T09:17:38.047Z,101031.59
2022-10-13T09:20:06.202Z,101035.94
2022-10-13T09:22:37.981Z,100965.34
2022-10-13T09:25:12.454Z,101031.22
2022-10-13T09:27:59.838Z,101031.38
2022-10-13T09:30:31.457Z,101037.44
2022-10-13T09:33:13.068Z,101038.44
2022-10-13T09:35:40.536Z,101034.06
2022-10-13T09:38:19.866Z,101005.13
2022-10-13T09:41:16.850Z,101030.72
2022-10-13T09:43:46.276Z,101026.91
2022-10-13T09:46:32.107Z,101015.53
2022-10-13T09:49:05.027Z,101014.53
2022-10-13T09:51:37.653Z,101031.88
2022-10-13T09:54:05.065Z,101019.16
2022-10-13T09:56:49.512Z,101014.44
2022-10-13T09:59:23.086Z,100996.13
2022-10-13T10:01:50.643Z,101008.34
2022-10-13T10:04:32.136Z,100982.84
2022-10-13T10:06:58.615Z,100956.31
2022-10-13T10:09:41.796Z,100995.06
2022-10-13T10:12:13.434Z,100962.09
2022-10-13T10:14:39.964Z,101000.03
2022-10-13T10:17:09.484Z,100991.69
2022-10-13T10:19:52.218Z,100987.94
2022-10-13T10:22:40.469Z,100994.16
2022-10-13T10:25:25.925Z,100994.91
2022-10-13T10:28:29.708Z,100994.97
2022-10-13T10:31:06.875Z,100998.34
2022-10-13T10:33:49.413Z,100946.69
2022-10-13T10:36:22.429Z,100951.09
2022-10-13T10:38:56.263Z,100912.25
2022-10-13T10:41:35.986Z,100961.22
2022-10-13T10:44:04.746Z,100954.91
2022-10-13T10:46:35.689Z,100956.78
2022-10-13T10:49:14.365Z,100969.13
2022-10-13T10:51:40.988Z,100956.69
2022-10-13T10:54:20.422Z,100959.94
2022-10-13T10:57:33.454Z,100932.78
2022-10-13T11:00:18.058Z,100954.88
2022-10-13T11:02:52.123Z,100960.66
2022-10-13T11:05:18.831Z,100949.16
2022-10-13T11:07:55.930Z,100901.44
2022-10-13T11:10:22.869Z,100946.72
2022-10-13T11:12:52.616Z,100933.06
2022-10-13T11:15:26.233Z,100921.72
2022-10-13T11:17:53.918Z,100892.44
2022-10-13T11:20:20.543Z,100926.03
2022-10-13T11:22:58.851Z,100913.41
2022-10-13T11:25:40.604Z,100912.44
2022-10-13T11:28:22.537Z,100907.19
2022-10-13T11:30:52.615Z,100910.81
2022-10-13T11:33:36.196Z,100899.13
2022-10-13T11:36:39.494Z,100899.13
2022-10-13T11:42:10.187Z,100863.19
2022-10-13T11:44:58.213Z,100887.78
2022-10-13T11:47:30.813Z,100880.28
2022-10-13T11:50:03.542Z,100878.25
2022-10-13T11:52:45.680Z,100877.16
2022-10-13T11:55:15.562Z,100873.03
2022-10-13T11:57:42.186Z,100849.06
2022-10-13T12:00:15.475Z,100864.78
2022-10-13T12:02:50.810Z,100868.34
2022-10-13T12:05:22.535Z,100876.53
2022-10-13T12:07:52.067Z,100856.88
2022-10-13T12:10:23.976Z,100856.81
2022-10-13T12:12:50.986Z,100855.97
2022-10-13T12:15:31.346Z,100866.56
2022-10-13T12:17:58.003Z,100864.06
2022-10-13T12:20:30.308Z,100811.00
2022-10-13T12:22:57.550Z,100862.31
2022-10-13T12:25:26.750Z,100861.88
2022-10-13T12:27:59.032Z,100789.41
2022-10-13T12:30:30.138Z,100832.31
2022-10-13T12:32:59.099Z,100863.56
2022-10-13T12:35:28.434Z,100817.03
2022-10-13T12:37:55.841Z,100830.72
2022-10-13T12:40:22.839Z,100860.22
2022-10-13T12:42:49.750Z,100798.78
2022-10-13T12:45:18.533Z,100857.38
2022-10-13T12:47:45.059Z,100856.91
2022-10-13T12:50:30.013Z,100860.00
2022-10-13T12:53:09.121Z,100783.03
2022-10-13T12:55:58.905Z,100821.69
2022-10-13T12:58:27.538Z,100857.78
2022-10-13T13:01:08.193Z,100856.69
2022-10-13T13:03:37.098Z,100859.66
2022-10-13T13:06:22.643Z,100855.06
2022-10-13T13:09:07.207Z,100859.47
2022-10-13T13:11:36.222Z,100856.03
2022-10-13T13:14:41.943Z,100862.38
2022-10-13T13:17:12.885Z,100844.88
2022-10-13T13:19:41.287Z,100733.09
2022-10-13T13:22:08.282Z,100839.03
2022-10-13T13:24:40.210Z,100851.34
2022-10-13T13:27:33.163Z,100857.50
2022-10-13T13:29:59.715Z,100858.72
2022-10-13T13:32:27.954Z,100861.13
2022-10-13T13:34:54.598Z,100787.84
2022-10-13T13:37:31.068Z,100855.03
2022-10-13T13:39:58.587Z,100859.47
2022-10-13T13:42:26.741Z,100863.19
2022-10-13T13:44:53.230Z,100831.22
2022-10-13T13:47:22.371Z,100860.75
2022-10-13T13:49:50.831Z,100862.16
2022-10-13T13:52:18.360Z,100778.63
2022-10-13T13:54:45.525Z,100861.06
2022-10-13T13:57:13.407Z,100875.13
2022-10-13T13:59:41.142Z,100806.72
2022-10-13T14:02:14.931Z,100835.25
2022-10-13T14:04:41.569Z,100876.19
2022-10-13T14:07:08.275Z,100873.59
2022-10-13T14:09:34.808Z,100835.25
2022-10-13T14:12:01.365Z,100832.19
2022-10-13T14:14:30.673Z,100872.97
2022-10-13T14:16:58.283Z,100838.47
2022-10-13T14:19:24.841Z,100875.44
2022-10-13T14:21:51.981Z,100848.34
2022-10-13T14:24:19.472Z,100794.78
2022-10-13T14:26:46.223Z,100879.16
2022-10-13T14:29:13.452Z,100883.69
2022-10-13T14:31:40.334Z,100876.81
2022-10-13T14:34:07.103Z,100871.81
2022-10-13T14:36:33.636Z,100872.84
2022-10-13T14:39:00.215Z,100844.38
2022-10-13T14:41:26.869Z,100810.47
2022-10-13T14:43:54.554Z,100860.56
2022-10-13T14:46:21.487Z,100853.81
2022-10-13T14:48:48.397Z,100865.72
2022-10-13T14:51:15.071Z,100871.03
2022-10-13T14:53:44.571Z,100869.84
2022-10-13T14:56:23.094Z,100870.72
2022-10-13T14:58:51.766Z,100832.97
2022-10-13T15:01:18.909Z,100839.16
2022-10-13T15:03:45.989Z,100838.31
2022-10-13T15:06:21.561Z,100859.91
2022-10-13T15:08:48.573Z,100842.03
2022-10-13T15:11:16.350Z,100852.00
2022-10-13T15:13:42.836Z,100810.19
2022-10-13T15:16:16.105Z,100837.13
2022-10-13T15:18:42.784Z,100790.63
2022-10-13T15:21:09.693Z,100848.50
2022-10-13T15:23:36.129Z,100854.84
2022-10-13T15:26:03.590Z,100838.31
2022-10-13T15:28:35.405Z,100854.25
2022-10-13T15:31:01.963Z,100852.50
2022-10-13T15:33:29.620Z,100848.00
2022-10-13T15:35:56.860Z,100855.00
2022-10-13T15:38:23.637Z,100853.38
2022-10-13T15:40:50.780Z,100797.63
2022-10-13T15:43:17.972Z,100842.13
2022-10-13T15:45:54.987Z,100808.28
2022-10-13T15:48:21.682Z,100847.47
2022-10-13T15:50:48.158Z,100846.31
2022-10-13T15:53:14.868Z,100846.53
2022-10-13T15:55:41.366Z,100808.06
2022-10-13T15:58:11.332Z,100813.91
2022-10-13T16:00:40.678Z,100816.97
2022-10-13T16:03:07.700Z,100825.75
2022-10-13T16:05:34.294Z,100791.47
2022-10-13T16:08:00.781Z,100695.75
2022-10-13T16:10:27.273Z,100832.00
2022-10-13T16:12:53.712Z,100838.09
2022-10-13T16:15:20.288Z,100833.50
2022-10-13T16:17:46.925Z,100810.59
2022-10-13T16:20:14.113Z,100826.09
2022-10-13T16:22:40.613Z,100791.66
2022-10-13T16:25:07.597Z,100773.69
2022-10-13T16:27:34.295Z,100781.91
2022-10-13T16:30:00.765Z,100825.97
2022-10-13T16:32:27.282Z,100785.22
2022-10-13T16:34:53.806Z,100764.78
2022-10-13T16:37:20.744Z,100814.31
2022-10-13T16:39:51.510Z,100814.75
2022-10-13T16:42:18.767Z,100789.88
2022-10-13T16:44:45.229Z,100793.75
2022-10-13T16:47:15.937Z,100814.69
2022-10-13T16:49:44.651Z,100814.50
2022-10-13T16:52:11.127Z,100726.28
2022-10-13T16:54:37.569Z,100817.41
2022-10-13T16:57:04.258Z,100772.59
2022-10-13T16:59:30.746Z,100779.72
2022-10-13T17:01:57.864Z,100729.00
2022-10-13T17:04:24.652Z,100813.69
2022-10-13T17:06:51.254Z,100810.47
2022-10-13T17:09:17.757Z,100799.66
2022-10-13T17:11:44.294Z,100801.63
2022-10-13T17:14:10.971Z,100775.66
2022-10-13T17:16:37.475Z,100805.81
2022-10-13T17:19:04.063Z,100802.38
2022-10-13T17:21:31.158Z,100772.84
2022-10-13T17:23:58.309Z,100711.56
2022-10-13T17:26:26.001Z,100645.63
2022-10-13T17:28:53.459Z,100783.84
2022-10-13T17:31:21.775Z,100813.16
2022-10-13T17:33:49.670Z,100809.13
2022-10-13T17:36:26.991Z,100819.16
2022-10-13T17:38:55.837Z,100775.75
2022-10-13T17:41:23.082Z,100801.94
2022-10-13T17:43:51.396Z,100803.66
2022-10-13T17:49:06.770Z,100807.06
2022-10-13T17:51:33.292Z,100788.16
2022-10-13T17:54:00.196Z,100805.75
2022-10-13T17:56:27.561Z,100812.41
2022-10-13T17:58:54.412Z,100805.50
2022-10-13T18:01:27.341Z,100773.53
2022-10-13T18:03:57.123Z,100796.53
2022-10-13T18:06:24.145Z,100785.06
2022-10-13T18:08:50.928Z,100750.88
2022-10-13T18:11:19.798Z,100807.41
2022-10-13T18:13:46.438Z,100807.25
2022-10-13T18:16:21.576Z,100792.16
2022-10-13T18:18:50.028Z,100813.16
2022-10-13T18:21:22.223Z,100815.66
2022-10-13T18:23:48.972Z,100815.34
2022-10-13T18:26:19.518Z,100813.69
2022-10-13T18:28:47.910Z,100796.03
2022-10-13T18:31:17.531Z,100811.63
2022-10-13T18:33:44.572Z,100670.88
2022-10-13T18:36:16.089Z,100820.09
2022-10-13T18:38:43.018Z,100822.41
2022-10-13T18:41:09.519Z,100815.72
2022-10-13T18:43:37.082Z,100807.84
2022-10-13T18:46:04.197Z,100767.69
2022-10-13T18:48:31.798Z,100832.03
2022-10-13T18:51:06.630Z,100833.72
2022-10-13T18:53:35.213Z,100818.34
2022-10-13T18:56:05.031Z,100830.66
2022-10-13T18:58:32.194Z,100834.50
2022-10-13T19:01:03.340Z,100843.38
2022-10-13T19:03:31.572Z,100795.94
2022-10-13T19:05:58.056Z,100801.28
2022-10-13T19:08:25.421Z,100835.09
2022-10-13T19:10:52.375Z,100776.19
2022-10-13T19:13:18.956Z,100806.78
2022-10-13T19:15:45.542Z,100826.56
2022-10-13T19:18:12.254Z,100825.78
2022-10-13T19:20:38.857Z,100756.06
2022-10-13T19:23:05.414Z,100778.78
2022-10-13T19:25:32.032Z,100804.25
2022-10-13T19:27:58.889Z,100840.19
2022-10-13T19:30:26.480Z,100838.03
2022-10-13T19:32:52.961Z,100811.84
2022-10-13T19:35:19.463Z,100772.44
2022-10-13T19:37:45.913Z,100786.38
2022-10-13T19:40:12.368Z,100788.66
2022-10-13T19:42:38.904Z,100821.25
2022-10-13T19:45:06.111Z,100793.31
2022-10-13T19:47:33.091Z,100837.78
2022-10-13T19:49:59.553Z,100822.91
2022-10-13T19:52:26.191Z,100819.56
2022-10-13T19:54:53.069Z,100775.31
2022-10-13T19:57:19.850Z,100819.28
2022-10-13T19:59:47.831Z,100800.06
2022-10-13T20:02:14.427Z,100818.88
2022-10-13T20:04:41.057Z,100800.50
2022-10-13T20:07:07.559Z,100814.16
2022-10-13T20:09:34.321Z,100842.44
2022-10-13T20:12:00.904Z,100832.72
2022-10-13T20:14:27.440Z,100809.00
2022-10-13T20:16:56.458Z,100806.19
2022-10-13T20:19:22.915Z,100828.31
2022-10-13T20:21:52.434Z,100793.00
2022-10-13T20:24:23.051Z,100770.59
2022-10-13T20:26:50.336Z,100844.66
2022-10-13T20:29:16.966Z,100844.88
2022-10-13T20:31:47.785Z,100819.81
2022-10-13T20:34:14.342Z,100783.22
2022-10-13T20:36:41.139Z,100838.38
2022-10-13T20:39:08.825Z,100850.34
2022-10-13T20:41:35.398Z,100838.81
2022-10-13T20:44:02.113Z,100776.63
2022-10-13T20:46:28.723Z,100843.03
2022-10-13T20:49:13.084Z,100843.84
2022-10-13T20:51:41.410Z,100849.13
2022-10-13T20:54:08.630Z,100844.56
2022-10-13T20:56:35.625Z,100816.81
2022-10-13T20:59:04.285Z,100845.53
2022-10-13T21:01:31.054Z,100814.66
2022-10-13T21:03:58.609Z,100823.31
2022-10-13T21:06:26.396Z,100848.34
2022-10-13T21:08:53.263Z,100845.44
2022-10-13T21:11:21.054Z,100838.63
2022-10-13T21:13:48.318Z,100856.25
2022-10-13T21:16:27.214Z,100846.81
2022-10-13T21:18:54.862Z,100852.72
2022-10-13T21:21:23.256Z,100855.41
2022-10-13T21:23:54.027Z,100824.09
2022-10-13T21:26:22.275Z,100854.53
2022-10-13T21:28:50.046Z,100849.75
2022-10-13T21:31:18.113Z,100810.16
2022-10-13T21:33:44.866Z,100832.63
2022-10-13T21:36:13.953Z,100847.31
2022-10-13T21:38:41.986Z,100851.44
2022-10-13T21:41:10.130Z,100848.66
2022-10-13T21:43:36.829Z,100849.50
2022-10-13T21:46:09.448Z,100858.81
2022-10-13T21:48:36.486Z,100817.09
2022-10-13T21:51:23.452Z,100856.28
2022-10-13T21:53:55.644Z,100828.28
2022-10-13T21:56:23.141Z,100853.31
2022-10-13T21:58:49.956Z,100850.78
2022-10-13T22:01:20.183Z,100841.47
2022-10-13T22:03:47.557Z,100840.31
2022-10-13T22:06:18.991Z,100840.41
2022-10-13T22:08:48.978Z,100766.34
2022-10-13T22:11:16.469Z,100841.56
2022-10-13T22:13:43.136Z,100838.81
2022-10-13T22:16:14.432Z,100821.09
2022-10-13T22:18:41.565Z,100787.78
2022-10-13T22:21:13.567Z,100796.44
2022-10-13T22:23:40.141Z,100791.06
2022-10-13T22:26:07.903Z,100848.84
2022-10-13T22:28:37.268Z,100825.59
2022-10-13T22:31:09.515Z,100841.19
2022-10-13T22:33:37.506Z,100840.38
2022-10-13T22:36:13.378Z,100833.97
2022-10-13T22:38:40.280Z,100744.63
2022-10-13T22:41:08.239Z,100843.91
2022-10-13T22:43:35.288Z,100845.16
2022-10-13T22:46:02.038Z,100834.25
2022-10-13T22:48:28.784Z,100829.72
2022-10-13T22:50:56.205Z,100844.59
2022-10-13T22:53:22.803Z,100840.16
2022-10-13T22:55:49.241Z,100797.19
2022-10-13T22:58:15.705Z,100843.13
2022-10-13T23:00:42.277Z,100820.03
2022-10-13T23:03:13.397Z,100804.88
2022-10-13T23:05:47.637Z,100719.75
2022-10-13T23:08:14.711Z,100849.34
2022-10-13T23:10:41.253Z,100846.88
2022-10-13T23:13:07.748Z,100849.25
2022-10-13T23:15:34.270Z,100813.00
2022-10-13T23:18:00.776Z,100735.22
2022-10-13T23:20:27.309Z,100787.31
2022-10-13T23:22:56.535Z,100838.09
2022-10-13T23:25:22.992Z,100845.34
2022-10-13T23:27:49.504Z,100806.56
2022-10-13T23:30:16.148Z,100837.94
2022-10-13T23:32:42.608Z,100818.97
2022-10-13T23:35:09.308Z,100820.03
2022-10-13T23:37:35.767Z,100812.13
2022-10-13T23:40:02.214Z,100824.38
2022-10-13T23:42:28.701Z,100824.78
2022-10-13T23:44:55.200Z,100821.41
2022-10-13T23:47:21.928Z,100770.75
2022-10-13T23:49:48.522Z,100824.38
2022-10-13T23:52:15.447Z,100794.59
2022-10-13T23:54:41.898Z,100810.56
2022-10-13T23:57:08.362Z,100793.78
2022-10-13T23:59:35.092Z,100808.84
